Time;durP1;ratioP1;P1;durP2;ratioP2;P2;SDS_P1;SDS_P2;PMS_P1;PMS_P2;Temp;Humidity;BMP_temperature;BMP_pressure;BME280_temperature;BME280_humidity;BME280_pressure;Samples;Min_cycle;Max_cycle;Signal;HPM_P1;HPM_P2
2023/06/21 04:03:09;;;;;;;11.60;7.73;;;20.90;97.30;;;;;;4873411;29;20552;-87
2023/06/21 04:05:35;;;;;;;11.10;6.57;;;21.00;97.30;;;;;;4877906;29;20496;-83
2023/06/21 04:08:00;;;;;;;12.70;5.93;;;21.00;97.30;;;;;;4877450;29;20194;-81
2023/06/21 04:10:26;;;;;;;4.27;4.00;;;21.00;97.30;;;;;;4878241;29;20221;-87
2023/06/21 04:12:51;;;;;;;14.33;6.17;;;21.00;97.30;;;;;;4911650;29;20181;-84
2023/06/21 04:15:17;;;;;;;8.10;5.57;;;21.00;97.30;;;;;;4955318;23;20607;-87
2023/06/21 04:17:43;;;;;;;12.60;5.17;;;21.00;97.30;;;;;;4953820;29;20752;-84
2023/06/21 04:20:14;;;;;;;9.77;6.43;;;21.00;97.30;;;;;;4948304;29;20175;-85
2023/06/21 04:22:41;;;;;;;6.20;5.30;;;20.90;97.30;;;;;;4941324;29;20546;-86
2023/06/21 04:25:08;;;;;;;7.70;4.47;;;20.90;97.30;;;;;;4947117;28;20463;-88
2023/06/21 04:27:33;;;;;;;8.00;5.70;;;20.90;97.30;;;;;;4924633;29;20958;-85
2023/06/21 04:29:59;;;;;;;9.60;6.87;;;20.90;97.30;;;;;;4935073;29;20412;-85
2023/06/21 04:32:31;;;;;;;10.67;6.00;;;20.90;97.30;;;;;;4937714;29;20260;-87
2023/06/21 04:34:59;;;;;;;8.13;5.60;;;20.90;97.30;;;;;;4933136;29;20459;-89
2023/06/21 04:37:25;;;;;;;6.60;5.00;;;20.90;97.30;;;;;;4933154;29;20435;-86
2023/06/21 04:39:51;;;;;;;9.13;5.43;;;20.90;97.30;;;;;;4947195;29;20435;-86
2023/06/21 04:42:20;;;;;;;4.63;3.53;;;20.90;97.30;;;;;;4933101;29;20431;-87
2023/06/21 04:44:48;;;;;;;19.93;5.30;;;20.90;97.30;;;;;;4940128;29;20204;-88
2023/06/21 04:47:17;;;;;;;5.80;4.10;;;20.90;97.30;;;;;;4939401;29;20431;-86
2023/06/21 04:49:43;;;;;;;8.33;4.33;;;20.90;97.30;;;;;;4927038;29;20514;-87
2023/06/21 04:52:09;;;;;;;11.80;5.40;;;20.90;97.30;;;;;;4939755;29;20431;-88
2023/06/21 04:54:36;;;;;;;10.73;6.07;;;20.90;97.30;;;;;;4935088;29;20486;-88
2023/06/21 04:57:03;;;;;;;9.53;5.83;;;20.90;97.30;;;;;;4943783;29;20427;-86
2023/06/21 04:59:30;;;;;;;7.90;4.00;;;20.90;97.30;;;;;;4948781;29;20423;-87
2023/06/21 05:01:56;;;;;;;10.00;6.00;;;20.90;97.30;;;;;;4932958;29;20545;-87
2023/06/21 05:04:21;;;;;;;5.00;4.70;;;20.90;97.30;;;;;;4937183;28;20423;-87
2023/06/21 05:06:46;;;;;;;4.80;3.77;;;21.00;97.30;;;;;;4946578;29;20231;-87
2023/06/21 05:09:12;;;;;;;7.73;4.80;;;21.00;97.30;;;;;;4930651;29;20176;-87
2023/06/21 05:11:38;;;;;;;5.93;4.73;;;21.00;97.30;;;;;;4948517;29;20250;-87
2023/06/21 05:14:04;;;;;;;6.50;3.97;;;21.00;97.30;;;;;;4940563;28;20708;-86
2023/06/21 05:16:29;;;;;;;4.00;3.80;;;21.00;97.30;;;;;;4944061;29;20230;-84
2023/06/21 05:18:55;;;;;;;11.57;4.73;;;21.00;97.30;;;;;;4928625;29;20195;-84
2023/06/21 05:21:20;;;;;;;5.63;4.27;;;21.00;97.30;;;;;;4933013;29;20178;-87
2023/06/21 05:23:46;;;;;;;11.37;5.30;;;21.00;97.30;;;;;;4937928;29;20678;-84
2023/06/21 05:26:12;;;;;;;5.77;4.20;;;21.00;97.30;;;;;;4950885;29;20452;-85
2023/06/21 05:28:38;;;;;;;22.23;4.40;;;21.10;97.30;;;;;;4944268;29;20187;-84
2023/06/21 05:31:03;;;;;;;5.30;4.17;;;21.10;97.30;;;;;;4937026;29;20423;-85
2023/06/21 05:33:29;;;;;;;9.63;5.57;;;21.10;97.30;;;;;;4933860;29;20176;-85
2023/06/21 05:35:54;;;;;;;4.73;4.00;;;21.10;97.30;;;;;;4928753;29;20211;-86
2023/06/21 05:38:20;;;;;;;6.37;4.63;;;21.20;97.30;;;;;;4937450;29;20214;-85
2023/06/21 05:40:45;;;;;;;13.73;6.43;;;21.20;97.30;;;;;;4942883;29;20179;-87
2023/06/21 05:43:11;;;;;;;5.10;3.80;;;21.30;97.30;;;;;;4952353;29;20187;-86
2023/06/21 05:45:38;;;;;;;9.73;4.93;;;21.30;97.30;;;;;;4942296;29;20207;-85
2023/06/21 05:48:04;;;;;;;10.50;4.57;;;21.30;97.30;;;;;;4944862;28;20203;-85
2023/06/21 05:50:30;;;;;;;4.00;3.17;;;21.40;97.30;;;;;;4949098;29;20422;-87
2023/06/21 05:52:57;;;;;;;4.20;4.03;;;21.40;97.30;;;;;;4937838;29;20182;-86
2023/06/21 05:55:22;;;;;;;5.97;3.80;;;21.50;97.30;;;;;;4934412;29;20824;-85
2023/06/21 05:57:48;;;;;;;8.43;4.50;;;21.50;97.30;;;;;;4939989;29;20424;-85
2023/06/21 06:00:14;;;;;;;8.97;4.50;;;21.60;97.30;;;;;;4939316;29;20179;-85
2023/06/21 06:02:39;;;;;;;9.13;4.57;;;21.60;97.30;;;;;;4945399;29;20207;-85
2023/06/21 06:05:05;;;;;;;9.60;3.90;;;21.70;97.30;;;;;;4933922;29;20947;-93
2023/06/21 06:07:31;;;;;;;25.53;4.90;;;21.70;97.30;;;;;;4933909;29;20186;-87
2023/06/21 06:09:56;;;;;;;7.90;5.30;;;21.80;97.30;;;;;;4937686;29;20218;-88
2023/06/21 06:12:22;;;;;;;20.40;4.60;;;21.90;97.30;;;;;;4938872;29;20176;-85
2023/06/21 06:14:47;;;;;;;4.57;2.67;;;22.00;97.30;;;;;;4938446;29;20600;-87
2023/06/21 06:17:13;;;;;;;4.00;2.60;;;22.10;97.30;;;;;;4946984;28;20225;-87
2023/06/21 06:19:39;;;;;;;8.70;4.87;;;22.10;97.30;;;;;;4953939;29;20253;-88
2023/06/21 06:22:04;;;;;;;4.83;4.00;;;22.20;97.30;;;;;;4953999;29;20182;-87
2023/06/21 06:24:30;;;;;;;3.57;3.20;;;22.20;97.30;;;;;;4951120;29;20275;-91
2023/06/21 06:26:55;;;;;;;6.00;4.00;;;22.20;97.30;;;;;;4949867;29;20243;-88
2023/06/21 06:29:21;;;;;;;8.13;3.67;;;22.20;97.30;;;;;;4961142;29;20168;-91
2023/06/21 06:31:47;;;;;;;7.07;4.40;;;22.20;97.30;;;;;;4946490;29;20194;-87
2023/06/21 06:34:12;;;;;;;9.50;4.23;;;22.20;97.30;;;;;;4945644;29;20568;-87
2023/06/21 06:36:37;;;;;;;4.53;3.87;;;22.20;97.30;;;;;;4950965;29;20183;-90
2023/06/21 06:39:03;;;;;;;7.40;5.53;;;22.30;97.30;;;;;;4951528;29;20431;-85
2023/06/21 06:41:29;;;;;;;8.10;3.80;;;22.30;97.30;;;;;;4946190;29;20176;-89
2023/06/21 06:43:54;;;;;;;14.97;3.83;;;22.40;97.30;;;;;;4941220;29;20242;-86
2023/06/21 06:46:20;;;;;;;11.77;6.63;;;22.40;97.30;;;;;;4945652;29;20253;-87
2023/06/21 06:48:45;;;;;;;7.40;5.20;;;22.50;97.30;;;;;;4948035;29;20474;-87
2023/06/21 06:51:11;;;;;;;6.63;3.80;;;22.60;97.30;;;;;;4950073;29;20630;-86
2023/06/21 06:53:36;;;;;;;9.17;4.53;;;22.70;97.30;;;;;;4937762;29;20216;-90
2023/06/21 06:56:02;;;;;;;3.17;2.97;;;22.70;97.30;;;;;;4935252;29;20200;-83
2023/06/21 06:58:28;;;;;;;7.43;4.53;;;22.80;97.30;;;;;;4941060;29;20283;-85
2023/06/21 07:00:54;;;;;;;9.83;4.50;;;22.90;97.30;;;;;;4949686;29;20183;-87
2023/06/21 07:03:20;;;;;;;8.30;4.60;;;23.00;97.30;;;;;;4934344;29;20644;-87
2023/06/21 07:05:46;;;;;;;5.03;3.30;;;23.00;97.30;;;;;;4945836;29;20549;-89
2023/06/21 07:08:12;;;;;;;7.87;3.60;;;23.10;97.30;;;;;;4938761;29;20184;-86
2023/06/21 07:10:38;;;;;;;5.90;3.97;;;23.10;97.30;;;;;;4935590;29;20439;-85
2023/06/21 07:13:04;;;;;;;6.10;4.13;;;23.20;97.30;;;;;;4934300;29;20286;-88
2023/06/21 07:15:30;;;;;;;4.60;3.63;;;23.30;97.30;;;;;;4936408;29;20595;-86
2023/06/21 07:17:55;;;;;;;7.43;4.97;;;23.30;97.30;;;;;;4946067;29;20191;-88
2023/06/21 07:20:21;;;;;;;5.13;3.90;;;23.30;97.30;;;;;;4937047;29;20194;-86
2023/06/21 07:22:47;;;;;;;17.20;5.90;;;23.40;97.30;;;;;;4934851;29;20188;-86
2023/06/21 07:25:12;;;;;;;6.43;4.47;;;23.50;97.30;;;;;;4934166;29;20219;-87
2023/06/21 07:27:38;;;;;;;10.97;4.87;;;23.50;97.30;;;;;;4934080;29;20179;-85
2023/06/21 07:30:05;;;;;;;10.87;4.77;;;23.60;97.30;;;;;;4934665;29;20247;-86
2023/06/21 07:32:30;;;;;;;6.13;4.40;;;23.60;97.30;;;;;;4935252;29;20199;-90
2023/06/21 07:34:58;;;;;;;4.57;3.83;;;23.60;97.30;;;;;;4934012;29;20453;-83
2023/06/21 07:37:23;;;;;;;6.63;3.73;;;23.60;97.30;;;;;;4934073;29;20656;-87
2023/06/21 07:39:49;;;;;;;4.27;3.60;;;23.60;97.30;;;;;;4938688;29;20791;-87
2023/06/21 07:42:14;;;;;;;3.73;3.50;;;23.70;97.30;;;;;;4938858;29;20665;-85
2023/06/21 07:44:40;;;;;;;5.10;4.23;;;23.70;97.30;;;;;;4941939;29;20200;-84
2023/06/21 07:47:05;;;;;;;7.40;4.57;;;23.80;97.30;;;;;;4939250;29;20213;-84
2023/06/21 07:49:31;;;;;;;7.00;4.97;;;23.80;97.30;;;;;;4940686;29;20323;-87
2023/06/21 07:51:56;;;;;;;6.07;5.07;;;23.80;97.30;;;;;;4946563;29;20283;-84
2023/06/21 07:54:22;;;;;;;25.73;5.67;;;23.90;97.30;;;;;;4948431;29;20175;-89
2023/06/21 07:56:48;;;;;;;6.83;5.27;;;23.90;97.30;;;;;;4936042;29;20560;-89
2023/06/21 07:59:13;;;;;;;6.43;4.37;;;23.80;97.30;;;;;;4944982;29;20433;-84
2023/06/21 08:01:39;;;;;;;7.10;3.23;;;23.80;97.30;;;;;;4949714;29;20184;-87
2023/06/21 08:04:04;;;;;;;9.87;5.83;;;23.80;97.30;;;;;;4948594;29;20195;-87
2023/06/21 08:06:30;;;;;;;6.43;5.73;;;23.80;97.30;;;;;;4942804;29;20211;-89
2023/06/21 08:08:55;;;;;;;11.60;5.93;;;23.90;97.30;;;;;;4946841;29;20179;-86
2023/06/21 08:11:21;;;;;;;9.73;4.70;;;24.00;97.30;;;;;;4944105;29;20206;-85
2023/06/21 08:13:46;;;;;;;7.10;4.43;;;24.10;97.30;;;;;;4948980;29;20192;-83
2023/06/21 08:16:12;;;;;;;6.30;4.37;;;24.20;97.30;;;;;;4947710;29;20649;-85
2023/06/21 08:18:37;;;;;;;8.00;5.60;;;24.30;97.30;;;;;;4951990;29;20188;-86
2023/06/21 08:21:07;;;;;;;6.60;4.73;;;24.50;97.30;;;;;;4939069;29;20594;-85
2023/06/21 08:23:33;;;;;;;6.47;3.57;;;24.60;97.30;;;;;;4935557;29;20180;-84
2023/06/21 08:25:58;;;;;;;4.63;3.27;;;24.70;97.30;;;;;;4939032;29;20530;-84
2023/06/21 08:28:24;;;;;;;3.83;3.63;;;24.80;97.30;;;;;;4941884;29;20194;-87
2023/06/21 08:30:50;;;;;;;5.63;4.60;;;25.00;97.30;;;;;;4933229;29;20335;-86
2023/06/21 08:33:15;;;;;;;7.27;4.27;;;25.00;97.30;;;;;;4926474;29;20439;-84
2023/06/21 08:35:41;;;;;;;6.90;4.80;;;25.10;97.30;;;;;;4925198;29;20223;-87
2023/06/21 08:38:07;;;;;;;7.57;5.27;;;25.10;97.30;;;;;;4928581;29;20202;-86
2023/06/21 08:40:33;;;;;;;4.67;4.40;;;25.10;97.30;;;;;;4923415;29;20195;-87
2023/06/21 08:42:59;;;;;;;40.63;8.43;;;25.20;97.30;;;;;;4927340;29;20814;-86
2023/06/21 08:45:25;;;;;;;7.47;4.40;;;25.30;97.30;;;;;;4916575;29;20978;-86
2023/06/21 08:47:51;;;;;;;8.67;5.20;;;25.40;97.30;;;;;;4936257;29;20433;-89
2023/06/21 08:50:19;;;;;;;5.97;4.23;;;25.40;97.30;;;;;;4951478;29;20175;-85
2023/06/21 08:52:45;;;;;;;3.77;3.20;;;25.40;97.30;;;;;;4928619;29;20435;-85
2023/06/21 08:55:14;;;;;;;6.27;5.00;;;25.40;97.30;;;;;;4944272;29;20458;-85
2023/06/21 08:58:08;;;;;;;9.30;5.17;;;25.50;97.30;;;;;;4936373;29;20435;-87
2023/06/21 09:00:39;;;;;;;8.40;3.93;;;25.50;97.30;;;;;;4926071;29;20436;-84
2023/06/21 09:03:07;;;;;;;11.50;5.17;;;25.50;97.30;;;;;;4932111;29;21001;-91
2023/06/21 09:06:03;;;;;;;6.93;4.63;;;25.50;97.30;;;;;;4939564;29;20818;-83
2023/06/21 09:08:31;;;;;;;4.27;3.43;;;25.70;97.30;;;;;;4934262;29;20430;-85
2023/06/21 09:10:57;;;;;;;9.27;4.87;;;25.80;97.30;;;;;;4930243;29;20419;-87
2023/06/21 09:13:27;;;;;;;6.60;3.93;;;25.90;97.30;;;;;;4929388;29;20428;-85
2023/06/21 09:15:57;;;;;;;10.03;5.47;;;26.00;97.30;;;;;;4946433;29;20493;-86
2023/06/21 09:18:23;;;;;;;4.40;3.87;;;26.10;97.30;;;;;;4940517;29;20443;-86
2023/06/21 09:20:50;;;;;;;4.13;3.63;;;26.20;96.80;;;;;;4947436;29;20423;-88
2023/06/21 09:23:16;;;;;;;4.20;3.27;;;26.30;96.20;;;;;;4933388;29;20188;-84
2023/06/21 09:25:44;;;;;;;9.00;4.90;;;26.40;96.90;;;;;;4947901;29;20750;-83
2023/06/21 09:28:11;;;;;;;4.40;3.30;;;26.40;96.50;;;;;;4930601;29;20821;-84
2023/06/21 09:30:36;;;;;;;4.13;3.93;;;26.50;96.70;;;;;;4916532;29;20436;-84
2023/06/21 09:33:02;;;;;;;3.90;3.67;;;26.60;96.50;;;;;;4940180;29;20770;-83
2023/06/21 09:35:28;;;;;;;2.70;2.50;;;26.70;95.20;;;;;;4936281;29;20208;-85
2023/06/21 09:37:53;;;;;;;7.40;3.40;;;26.70;94.40;;;;;;4945540;29;20183;-85
2023/06/21 09:40:19;;;;;;;3.83;3.07;;;26.80;95.40;;;;;;4952614;29;20198;-88
2023/06/21 09:42:45;;;;;;;8.33;4.40;;;26.90;94.60;;;;;;4933543;29;20184;-84
2023/06/21 09:45:12;;;;;;;6.53;3.50;;;26.90;94.40;;;;;;4938540;29;20202;-86
2023/06/21 09:47:41;;;;;;;3.80;2.70;;;26.90;94.70;;;;;;4940856;29;21058;-84
2023/06/21 09:50:08;;;;;;;4.77;4.23;;;26.90;94.70;;;;;;4927019;29;20918;-85
2023/06/21 09:52:34;;;;;;;6.67;3.47;;;26.80;93.40;;;;;;4943947;29;20420;-87
2023/06/21 09:54:59;;;;;;;6.60;4.00;;;26.70;93.10;;;;;;4937252;29;20540;-84
2023/06/21 09:57:30;;;;;;;8.93;4.10;;;26.70;93.10;;;;;;4944776;29;20549;-84
2023/06/21 09:59:56;;;;;;;3.53;2.50;;;26.60;93.20;;;;;;4950955;29;20180;-84
2023/06/21 10:02:24;;;;;;;5.13;3.30;;;26.60;93.60;;;;;;4951741;29;20419;-87
2023/06/21 10:04:54;;;;;;;4.23;2.93;;;26.70;93.30;;;;;;4945425;29;20443;-88
2023/06/21 10:07:21;;;;;;;5.97;3.83;;;26.80;93.80;;;;;;4950938;29;20423;-87
2023/06/21 10:09:47;;;;;;;2.83;2.70;;;26.80;93.60;;;;;;4943514;29;20807;-85
2023/06/21 10:12:14;;;;;;;3.90;2.83;;;26.90;92.20;;;;;;4945035;29;20947;-82
2023/06/21 10:14:41;;;;;;;5.80;2.53;;;26.90;93.20;;;;;;4934986;29;20466;-84
2023/06/21 10:17:10;;;;;;;14.10;6.17;;;27.00;92.70;;;;;;4930252;29;20428;-89
2023/06/21 10:19:36;;;;;;;6.37;3.63;;;27.10;92.00;;;;;;4944928;29;20510;-89
2023/06/21 10:22:14;;;;;;;4.77;2.63;;;27.20;91.40;;;;;;4950507;28;20994;-88
2023/06/21 10:24:50;;;;;;;5.37;2.93;;;27.40;92.00;;;;;;4947261;29;20501;-91
2023/06/21 10:27:18;;;;;;;3.00;2.80;;;27.50;89.70;;;;;;4946585;29;20461;-88
2023/06/21 10:29:48;;;;;;;3.43;2.60;;;27.60;88.30;;;;;;4938345;29;20926;-88
2023/06/21 10:32:14;;;;;;;4.47;2.80;;;27.60;89.80;;;;;;4943740;29;20426;-91
2023/06/21 10:35:03;;;;;;;5.10;3.30;;;27.70;89.30;;;;;;4944158;29;20447;-91
2023/06/21 10:37:37;;;;;;;3.73;3.03;;;27.70;88.50;;;;;;4946928;29;20518;-90
2023/06/21 10:40:05;;;;;;;6.90;3.57;;;27.60;88.60;;;;;;4935338;29;20420;-91
2023/06/21 10:42:32;;;;;;;4.37;2.60;;;27.60;88.70;;;;;;4942347;29;20459;-90
2023/06/21 10:44:58;;;;;;;4.80;2.80;;;27.50;87.90;;;;;;4944619;29;20453;-91
2023/06/21 10:47:25;;;;;;;7.43;4.37;;;27.50;88.50;;;;;;4942956;29;20810;-88
2023/06/21 10:49:56;;;;;;;4.43;3.33;;;27.50;87.20;;;;;;4936346;29;20499;-91
2023/06/21 10:52:22;;;;;;;2.57;2.37;;;27.50;88.00;;;;;;4943192;29;20459;-90
2023/06/21 10:54:49;;;;;;;3.13;2.83;;;27.60;88.70;;;;;;4954086;29;20438;-89
2023/06/21 10:57:16;;;;;;;4.47;3.07;;;27.70;89.40;;;;;;4953609;29;20426;-89
2023/06/21 10:59:43;;;;;;;4.77;2.80;;;27.70;89.70;;;;;;4943874;29;20934;-89
2023/06/21 11:02:08;;;;;;;7.60;3.70;;;27.80;88.80;;;;;;4936535;29;20482;-88
2023/06/21 11:05:11;;;;;;;5.77;2.67;;;27.70;88.20;;;;;;4942511;29;20463;-88
2023/06/21 11:07:37;;;;;;;5.83;2.80;;;27.80;88.80;;;;;;4942816;29;20187;-90
2023/06/21 11:10:04;;;;;;;3.67;2.30;;;27.80;88.40;;;;;;4948631;29;20761;-87
2023/06/21 11:12:30;;;;;;;3.57;2.60;;;27.90;87.90;;;;;;4944781;29;20297;-89
2023/06/21 11:14:57;;;;;;;2.70;2.20;;;27.90;87.90;;;;;;4946347;29;20992;-88
2023/06/21 11:17:24;;;;;;;2.40;2.27;;;27.90;87.00;;;;;;4937778;29;20207;-91
2023/06/21 11:19:49;;;;;;;5.00;2.60;;;28.00;86.20;;;;;;4924491;29;20432;-90
2023/06/21 11:22:24;;;;;;;2.30;2.20;;;28.00;86.80;;;;;;4923319;29;20424;-90
2023/06/21 11:24:57;;;;;;;3.00;2.37;;;28.10;86.00;;;;;;4932748;29;20271;-90
2023/06/21 11:27:25;;;;;;;3.10;2.63;;;28.30;85.40;;;;;;4937365;29;20419;-90
2023/06/21 11:30:03;;;;;;;3.10;2.20;;;28.40;85.40;;;;;;4955311;28;20980;-91
2023/06/21 11:32:29;;;;;;;3.80;2.23;;;28.60;83.60;;;;;;4945867;29;20994;-87
2023/06/21 11:34:57;;;;;;;4.10;2.30;;;28.60;83.50;;;;;;4931805;29;20474;-88
2023/06/21 11:37:40;;;;;;;5.53;2.93;;;28.80;83.20;;;;;;4937426;29;20803;-88
2023/06/21 11:40:10;;;;;;;3.00;2.00;;;28.90;79.10;;;;;;4930294;29;20416;-91
2023/06/21 11:42:42;;;;;;;1.87;1.80;;;28.90;80.20;;;;;;4931560;29;20419;-90
2023/06/21 11:45:17;;;;;;;4.20;2.80;;;28.90;80.80;;;;;;4939258;29;20443;-88
2023/06/21 11:47:58;;;;;;;3.33;2.50;;;28.90;81.70;;;;;;4938041;29;20848;-88
2023/06/21 11:50:32;;;;;;;3.23;2.23;;;28.90;81.00;;;;;;4933442;29;20446;-87
2023/06/21 11:53:16;;;;;;;4.43;1.63;;;28.90;81.70;;;;;;4923367;29;20433;-86
2023/06/21 11:55:42;;;;;;;3.93;2.90;;;28.90;80.30;;;;;;4935429;29;20549;-83
2023/06/21 11:58:09;;;;;;;2.53;1.80;;;28.80;79.30;;;;;;4935850;29;20546;-84
2023/06/21 12:00:35;;;;;;;3.33;2.37;;;28.80;80.50;;;;;;4935415;29;20192;-83
2023/06/21 12:03:02;;;;;;;7.10;2.90;;;28.80;81.20;;;;;;4933497;29;20433;-84
2023/06/21 12:05:42;;;;;;;2.70;2.50;;;28.90;82.10;;;;;;4937530;28;20243;-85
2023/06/21 12:08:09;;;;;;;2.13;2.00;;;29.00;81.70;;;;;;4937229;29;20548;-84
2023/06/21 12:10:35;;;;;;;2.90;2.40;;;29.20;81.40;;;;;;4936890;29;20424;-85
2023/06/21 12:13:07;;;;;;;3.83;2.50;;;29.30;80.80;;;;;;4935759;29;20428;-85
2023/06/21 12:15:32;;;;;;;3.70;3.50;;;29.40;80.60;;;;;;4941331;29;20501;-88
2023/06/21 12:18:08;;;;;;;2.20;2.00;;;29.50;80.80;;;;;;4937993;29;20468;-86
2023/06/21 12:20:36;;;;;;;3.63;2.27;;;29.50;79.70;;;;;;4948054;29;20192;-83
2023/06/21 12:23:02;;;;;;;2.20;2.00;;;29.50;81.00;;;;;;4933565;29;20444;-86
2023/06/21 12:25:27;;;;;;;2.40;1.70;;;29.70;80.90;;;;;;4945706;29;20470;-83
2023/06/21 12:27:56;;;;;;;3.70;2.73;;;29.80;81.60;;;;;;4942254;29;20271;-81
2023/06/21 12:30:25;;;;;;;2.57;2.23;;;30.00;81.90;;;;;;4935099;29;20271;-85
2023/06/21 12:32:51;;;;;;;4.03;2.60;;;30.10;79.00;;;;;;4932234;29;20430;-83
2023/06/21 12:35:17;;;;;;;4.37;3.10;;;30.30;79.40;;;;;;4945375;29;20583;-84
2023/06/21 12:37:45;;;;;;;2.13;1.83;;;30.30;79.10;;;;;;4934107;29;20453;-83
2023/06/21 12:40:12;;;;;;;4.63;2.47;;;30.30;80.00;;;;;;4934721;29;20424;-82
2023/06/21 12:42:37;;;;;;;2.67;2.10;;;30.20;78.60;;;;;;4942509;29;21107;-84
2023/06/21 12:45:05;;;;;;;2.75;2.55;;;30.10;77.70;;;;;;4935882;29;20447;-84
2023/06/21 12:47:31;;;;;;;2.43;2.23;;;30.10;78.20;;;;;;4934108;29;20390;-84
2023/06/21 12:50:00;;;;;;;3.73;3.20;;;30.00;77.30;;;;;;4937722;29;20450;-83
2023/06/21 12:52:28;;;;;;;7.20;3.73;;;30.00;77.10;;;;;;4943173;28;20186;-83
2023/06/21 12:54:58;;;;;;;2.90;2.37;;;30.00;77.20;;;;;;4927687;29;20535;-83
2023/06/21 12:57:31;;;;;;;3.73;2.43;;;30.00;77.70;;;;;;4935072;29;20434;-85
2023/06/21 12:59:57;;;;;;;4.60;2.30;;;30.00;76.70;;;;;;4934334;29;20416;-83
2023/06/21 13:02:26;;;;;;;4.00;2.57;;;30.00;78.10;;;;;;4926640;29;20746;-84
2023/06/21 13:04:55;;;;;;;3.70;2.90;;;30.00;77.70;;;;;;4945517;29;20451;-84
2023/06/21 13:07:21;;;;;;;3.80;2.70;;;30.10;79.30;;;;;;4944775;29;20463;-85
2023/06/21 13:09:48;;;;;;;2.30;1.90;;;30.20;78.80;;;;;;4941981;29;20420;-83
2023/06/21 13:12:13;;;;;;;6.00;2.60;;;30.40;76.50;;;;;;4941835;29;20846;-84
2023/06/21 13:14:39;;;;;;;4.43;2.63;;;30.50;77.20;;;;;;4950087;29;20507;-85
2023/06/21 13:17:04;;;;;;;3.67;3.00;;;30.60;76.60;;;;;;4952036;29;20588;-83
2023/06/21 13:19:30;;;;;;;3.03;2.53;;;30.60;76.50;;;;;;4952028;29;20182;-86
2023/06/21 13:21:57;;;;;;;6.17;3.60;;;30.60;77.00;;;;;;4946595;29;20218;-85
2023/06/21 13:24:22;;;;;;;2.83;2.53;;;30.60;78.20;;;;;;4931583;29;20188;-85
2023/06/21 13:26:47;;;;;;;3.43;2.67;;;30.50;77.00;;;;;;4925445;29;20823;-85
2023/06/21 13:29:13;;;;;;;4.83;2.90;;;30.50;77.30;;;;;;4920943;29;20181;-84
2023/06/21 13:31:38;;;;;;;6.47;2.90;;;30.50;78.20;;;;;;4925364;29;20523;-82
2023/06/21 13:34:04;;;;;;;9.47;3.40;;;30.50;78.20;;;;;;4948507;29;20171;-85
2023/06/21 13:36:29;;;;;;;3.13;2.40;;;30.60;78.00;;;;;;4942989;29;20322;-83
2023/06/21 13:38:55;;;;;;;6.17;2.50;;;30.50;76.90;;;;;;4935440;29;20658;-83
2023/06/21 13:41:21;;;;;;;4.50;3.77;;;30.40;77.20;;;;;;4935304;29;20191;-87
2023/06/21 13:43:47;;;;;;;6.40;2.97;;;30.50;77.30;;;;;;4928700;29;20659;-85
2023/06/21 13:46:12;;;;;;;4.97;2.70;;;30.50;76.20;;;;;;4937471;29;20559;-81
2023/06/21 13:48:40;;;;;;;4.43;3.07;;;30.60;76.10;;;;;;4935217;29;20442;-84
2023/06/21 13:51:05;;;;;;;3.17;1.90;;;30.80;75.20;;;;;;4935463;29;20180;-85
2023/06/21 13:53:31;;;;;;;4.03;2.60;;;31.00;75.10;;;;;;4933695;29;20914;-85
2023/06/21 13:55:57;;;;;;;5.53;2.43;;;31.10;74.70;;;;;;4932352;29;20769;-81
2023/06/21 13:58:23;;;;;;;5.70;4.00;;;31.10;74.20;;;;;;4933932;29;20198;-84
2023/06/21 14:00:49;;;;;;;4.40;2.70;;;31.20;74.20;;;;;;4944293;29;20239;-84
2023/06/21 14:03:14;;;;;;;3.40;2.60;;;31.00;74.00;;;;;;4939674;28;20458;-83
2023/06/21 14:05:40;;;;;;;4.80;2.57;;;30.80;74.70;;;;;;4924546;29;20235;-84
2023/06/21 14:08:05;;;;;;;3.20;2.30;;;30.70;75.30;;;;;;4935959;29;20183;-85
2023/06/21 14:10:33;;;;;;;2.80;2.03;;;30.50;75.80;;;;;;4924723;29;20246;-86
2023/06/21 14:12:59;;;;;;;2.80;2.40;;;30.50;76.10;;;;;;4932867;29;20333;-84
2023/06/21 14:15:25;;;;;;;3.00;1.70;;;30.40;76.20;;;;;;4930820;29;20490;-85
2023/06/21 14:17:54;;;;;;;2.77;2.60;;;30.40;76.90;;;;;;4936427;29;20191;-84
2023/06/21 14:20:22;;;;;;;4.50;2.57;;;30.30;76.20;;;;;;4930577;29;20184;-84
2023/06/21 14:22:47;;;;;;;3.77;3.00;;;30.20;76.20;;;;;;4935662;29;20437;-85
2023/06/21 14:25:13;;;;;;;5.03;3.03;;;30.10;76.70;;;;;;4935497;29;20882;-85
2023/06/21 14:27:43;;;;;;;2.73;2.33;;;30.10;75.70;;;;;;4932766;29;20199;-86
2023/06/21 14:30:10;;;;;;;5.00;3.20;;;30.10;75.50;;;;;;4932794;29;20686;-85
2023/06/21 14:32:35;;;;;;;2.63;2.10;;;30.10;75.70;;;;;;4933261;29;20428;-86
2023/06/21 14:35:01;;;;;;;2.87;2.50;;;30.00;76.30;;;;;;4929886;29;20443;-84
2023/06/21 14:37:27;;;;;;;5.10;2.90;;;30.00;76.50;;;;;;4942996;28;20234;-83
2023/06/21 14:39:55;;;;;;;4.47;3.50;;;30.00;77.10;;;;;;4949703;29;20270;-82
2023/06/21 14:42:22;;;;;;;6.30;2.40;;;30.00;76.60;;;;;;4947995;29;20450;-86
2023/06/21 14:44:48;;;;;;;5.93;3.60;;;30.00;77.00;;;;;;4941175;29;20458;-84
2023/06/21 14:47:14;;;;;;;3.83;2.23;;;29.90;76.70;;;;;;4936178;29;20451;-81
2023/06/21 14:49:40;;;;;;;3.10;2.30;;;29.90;77.00;;;;;;4956226;29;20222;-83
2023/06/21 14:52:06;;;;;;;2.60;2.10;;;29.80;76.90;;;;;;4952823;29;20665;-83
2023/06/21 14:54:32;;;;;;;2.00;1.93;;;29.80;78.30;;;;;;4955964;29;20442;-86
2023/06/21 14:56:57;;;;;;;5.03;2.93;;;29.80;77.70;;;;;;4944039;29;20415;-81
2023/06/21 14:59:25;;;;;;;24.20;14.03;;;29.80;78.20;;;;;;4943111;29;20207;-84
2023/06/21 15:01:50;;;;;;;35.07;13.27;;;29.80;78.40;;;;;;4930402;29;20222;-83
2023/06/21 15:04:16;;;;;;;6.90;4.03;;;29.90;78.60;;;;;;4938352;29;20436;-83
2023/06/21 15:06:41;;;;;;;4.50;3.17;;;29.90;78.30;;;;;;4953031;29;20331;-84
2023/06/21 15:09:07;;;;;;;3.40;1.90;;;30.00;78.50;;;;;;4945807;29;20187;-84
2023/06/21 15:11:32;;;;;;;4.33;2.57;;;30.10;78.90;;;;;;4926940;29;20743;-84
2023/06/21 15:13:58;;;;;;;2.20;1.77;;;30.20;79.00;;;;;;4937391;29;20673;-87
2023/06/21 15:16:26;;;;;;;4.47;2.60;;;30.10;79.90;;;;;;4948137;29;20250;-85
2023/06/21 15:18:52;;;;;;;4.33;2.20;;;29.90;80.30;;;;;;4936867;29;20693;-83
2023/06/21 15:21:17;;;;;;;5.50;2.63;;;29.90;81.60;;;;;;4942812;29;20431;-84
2023/06/21 15:23:43;;;;;;;4.60;3.00;;;29.80;81.40;;;;;;4957116;29;20176;-85
2023/06/21 15:26:08;;;;;;;7.13;3.63;;;29.80;81.80;;;;;;4945179;29;20212;-85
2023/06/21 15:28:34;;;;;;;2.87;2.70;;;29.80;82.20;;;;;;4949590;29;20186;-84
2023/06/21 15:31:00;;;;;;;5.03;2.70;;;29.80;81.60;;;;;;4959849;29;20208;-85
2023/06/21 15:33:25;;;;;;;5.50;2.90;;;29.70;81.70;;;;;;4962269;29;20179;-82
2023/06/21 15:35:51;;;;;;;3.97;3.60;;;29.60;82.30;;;;;;4952001;29;20215;-84
2023/06/21 15:38:19;;;;;;;2.53;2.33;;;29.60;82.50;;;;;;4927874;29;20187;-80
2023/06/21 15:40:45;;;;;;;4.57;2.63;;;29.60;81.80;;;;;;4933550;29;20212;-83
2023/06/21 15:43:10;;;;;;;5.60;3.33;;;29.60;81.70;;;;;;4929981;29;20458;-83
2023/06/21 15:45:36;;;;;;;3.30;3.13;;;29.40;81.70;;;;;;4941724;29;20195;-83
2023/06/21 15:48:02;;;;;;;3.83;2.13;;;29.30;82.60;;;;;;4921609;29;20185;-83
2023/06/21 15:50:27;;;;;;;5.00;2.97;;;29.20;82.20;;;;;;4930759;29;20180;-82
2023/06/21 15:52:53;;;;;;;3.33;3.00;;;29.10;82.30;;;;;;4950355;29;20176;-85
2023/06/21 15:55:18;;;;;;;5.30;2.30;;;29.20;82.40;;;;;;4943476;29;20200;-83
2023/06/21 15:57:44;;;;;;;3.47;3.30;;;29.20;82.30;;;;;;4936658;29;20193;-84
2023/06/21 16:00:10;;;;;;;3.67;2.23;;;29.20;82.30;;;;;;4948202;29;20181;-82
2023/06/21 16:02:36;;;;;;;3.37;2.20;;;29.30;81.90;;;;;;4944944;29;20665;-86
2023/06/21 16:05:03;;;;;;;3.10;2.43;;;29.30;81.50;;;;;;4952583;29;20443;-82
2023/06/21 16:07:29;;;;;;;4.87;3.07;;;29.40;82.30;;;;;;4948743;29;20553;-83
2023/06/21 16:09:54;;;;;;;4.10;2.83;;;29.50;82.90;;;;;;4955363;29;20440;-84
2023/06/21 16:12:20;;;;;;;3.87;2.70;;;29.60;81.50;;;;;;4948362;29;20179;-83
2023/06/21 16:14:45;;;;;;;2.83;2.43;;;29.70;81.60;;;;;;4958548;29;20227;-84
2023/06/21 16:17:11;;;;;;;3.50;2.20;;;29.80;81.20;;;;;;4953701;29;20199;-84
2023/06/21 16:19:36;;;;;;;2.83;2.40;;;29.70;81.20;;;;;;4946976;29;20215;-84
2023/06/21 16:22:02;;;;;;;6.00;3.40;;;29.60;81.10;;;;;;4936093;29;20231;-84
2023/06/21 16:24:28;;;;;;;4.10;3.03;;;29.60;81.80;;;;;;4944933;29;20207;-85
2023/06/21 16:26:55;;;;;;;5.83;2.67;;;29.70;81.60;;;;;;4947075;29;20208;-85
2023/06/21 16:29:21;;;;;;;4.00;2.67;;;29.80;81.90;;;;;;4932200;29;20211;-92
2023/06/21 16:31:46;;;;;;;4.80;2.90;;;29.80;81.40;;;;;;4948326;29;20860;-85
2023/06/21 16:34:13;;;;;;;6.33;3.03;;;29.80;82.00;;;;;;4941172;29;20182;-87
2023/06/21 16:36:38;;;;;;;3.33;2.47;;;29.80;81.30;;;;;;4947548;29;20422;-86
2023/06/21 16:39:04;;;;;;;3.50;2.30;;;29.70;80.80;;;;;;4952729;29;21032;-87
2023/06/21 16:41:29;;;;;;;2.73;2.57;;;29.70;80.60;;;;;;4936848;29;20191;-83
2023/06/21 16:43:55;;;;;;;3.40;3.23;;;29.60;80.70;;;;;;4933216;29;20244;-84
2023/06/21 16:46:20;;;;;;;6.40;2.87;;;29.50;80.80;;;;;;4939414;29;20266;-85